Time;durP1;ratioP1;P1;durP2;ratioP2;P2;SDS_P1;SDS_P2;PMS_P1;PMS_P2;Temp;Humidity;BMP_temperature;BMP_pressure;BME280_temperature;BME280_humidity;BME280_pressure;Samples;Min_cycle;Max_cycle;Signal;HPM_P1;HPM_P2
2021/07/14 00:02:14;;;;;;;9.20;2.92;;;;;;;18.92;100.00;101038.84;1591924;90;21041;-81
2021/07/14 00:04:40;;;;;;;9.90;3.22;;;;;;;18.82;100.00;101038.50;1591953;90;21108;-81
2021/07/14 00:07:06;;;;;;;4.92;2.65;;;;;;;18.73;100.00;101040.83;1591697;90;21167;-72
2021/07/14 00:09:33;;;;;;;9.23;2.85;;;;;;;18.67;100.00;101042.84;1591898;90;21668;-77
2021/07/14 00:12:02;;;;;;;13.55;3.72;;;;;;;18.57;100.00;101042.50;1593008;90;21065;-78
2021/07/14 00:17:19;;;;;;;7.00;2.42;;;;;;;18.43;100.00;101045.77;1591538;90;21552;-80
2021/07/14 00:22:32;;;;;;;9.10;3.08;;;;;;;18.36;100.00;101046.73;1591797;90;21485;-74
2021/07/14 00:24:58;;;;;;;7.85;2.80;;;;;;;18.28;100.00;101042.77;1591844;90;21534;-73
2021/07/14 00:27:25;;;;;;;6.92;2.83;;;;;;;18.22;100.00;101046.70;1591982;88;21056;-75
2021/07/14 00:29:55;;;;;;;10.78;3.08;;;;;;;18.17;100.00;101049.51;1591533;88;21191;-80
2021/07/14 00:32:22;;;;;;;6.10;2.80;;;;;;;18.02;100.00;101053.31;1591572;88;21486;-74
2021/07/14 00:34:50;;;;;;;9.15;2.98;;;;;;;17.98;100.00;101055.03;1591538;89;21517;-74
2021/07/14 00:37:18;;;;;;;10.03;3.00;;;;;;;17.98;100.00;101055.03;1591927;90;21070;-72
2021/07/14 00:39:45;;;;;;;5.08;2.45;;;;;;;17.94;100.00;101052.62;1591638;90;21467;-74
2021/07/14 00:42:12;;;;;;;13.15;3.27;;;;;;;17.91;100.00;101057.30;1591924;90;21103;-77
2021/07/14 00:44:38;;;;;;;6.80;2.92;;;;;;;17.91;100.00;101055.94;1591777;90;21062;-71
2021/07/14 00:47:06;;;;;;;9.33;3.30;;;;;;;17.90;100.00;101055.70;1591913;89;21082;-75
2021/07/14 00:49:34;;;;;;;10.43;2.90;;;;;;;17.92;100.00;101052.12;1591780;90;21549;-74
2021/07/14 00:52:01;;;;;;;10.43;3.75;;;;;;;17.95;100.00;101056.19;1591825;90;21048;-72
2021/07/14 00:54:27;;;;;;;12.45;3.10;;;;;;;17.96;100.00;101061.88;1591870;88;21906;-71
2021/07/14 00:56:53;;;;;;;8.23;3.08;;;;;;;17.93;100.00;101061.36;1591788;88;21242;-74
2021/07/14 00:59:19;;;;;;;8.35;2.92;;;;;;;17.92;100.00;101061.12;1591852;90;20922;-78
2021/07/14 01:01:47;;;;;;;10.13;3.10;;;;;;;17.86;100.00;101062.31;1591714;90;21066;-74
2021/07/14 01:04:26;;;;;;;9.53;3.20;;;;;;;17.77;100.00;101061.33;1591823;90;21124;-80
2021/07/14 01:07:31;;;;;;;9.35;3.12;;;;;;;17.71;100.00;101067.42;1592237;90;21161;-78
2021/07/14 01:10:11;;;;;;;9.78;2.95;;;;;;;17.56;100.00;101054.02;1506955;93;21106;-74
2021/07/14 01:13:12;;;;;;;8.40;3.27;;;;;;;17.37;100.00;101030.05;1503585;93;21085;-72
2021/07/14 01:15:53;;;;;;;7.60;2.58;;;;;;;17.48;100.00;101065.58;1486127;93;21104;-73
2021/07/14 01:18:35;;;;;;;5.12;2.70;;;;;;;17.30;100.00;101052.77;1462694;96;21124;-78
2021/07/14 01:21:12;;;;;;;6.60;2.50;;;;;;;17.36;100.00;101070.66;1485158;94;22093;-73
2021/07/14 01:24:07;;;;;;;9.00;2.65;;;;;;;17.35;100.00;101072.55;1483595;94;21106;-71
2021/07/14 01:27:06;;;;;;;7.28;2.77;;;;;;;17.33;100.00;101065.80;1485134;94;21104;-73
2021/07/14 01:29:37;;;;;;;12.33;2.85;;;;;;;17.29;100.00;101070.20;1485213;94;21027;-74
2021/07/14 01:32:06;;;;;;;6.78;2.72;;;;;;;17.30;100.00;101067.75;1474308;96;21112;-74
2021/07/14 01:34:35;;;;;;;8.88;2.92;;;;;;;17.22;100.00;101057.75;1473243;95;21591;-73
2021/07/14 01:37:07;;;;;;;7.95;3.05;;;;;;;17.31;100.00;101079.70;1469072;96;21098;-77
2021/07/14 01:39:35;;;;;;;14.95;3.52;;;;;;;17.15;100.00;101057.31;1468800;97;21125;-72
2021/07/14 01:42:05;;;;;;;8.58;2.58;;;;;;;17.15;100.00;101057.31;1469739;96;21255;-77
2021/07/14 01:44:31;;;;;;;4.97;3.33;;;;;;;17.27;100.00;101076.52;1469292;96;21614;-76
2021/07/14 01:47:00;;;;;;;9.58;3.08;;;;;;;17.28;100.00;101072.67;1468966;96;21349;-71
2021/07/14 01:49:29;;;;;;;6.42;3.30;;;;;;;17.30;100.00;101066.39;1470017;96;21690;-73
2021/07/14 01:52:14;;;;;;;8.80;3.00;;;;;;;17.32;100.00;101075.86;1469094;96;21183;-79
2021/07/14 01:54:41;;;;;;;10.23;3.47;;;;;;;17.27;100.00;101073.79;1468875;97;21657;-79
2021/07/14 01:57:10;;;;;;;12.73;3.20;;;;;;;17.27;100.00;101073.79;1468895;97;21103;-72
2021/07/14 01:59:38;;;;;;;8.60;3.35;;;;;;;17.27;100.00;101078.68;1469275;96;21956;-76
2021/07/14 02:02:07;;;;;;;12.07;2.70;;;;;;;17.28;100.00;101078.92;1469179;96;21609;-72
2021/07/14 02:04:36;;;;;;;9.90;2.60;;;;;;;17.26;100.00;101079.77;1469526;96;21142;-74
2021/07/14 02:07:12;;;;;;;5.72;2.95;;;;;;;17.26;100.00;101077.04;1509466;93;21079;-78
2021/07/14 02:09:42;;;;;;;8.38;3.20;;;;;;;17.25;100.00;101076.23;1522874;94;21573;-73
2021/07/14 02:12:14;;;;;;;7.60;2.90;;;;;;;17.26;100.00;101083.84;1509661;94;21147;-74
2021/07/14 02:14:48;;;;;;;10.25;3.47;;;;;;;17.28;100.00;101080.84;1466714;95;21054;-73
2021/07/14 02:17:18;;;;;;;9.55;3.87;;;;;;;17.32;100.00;101077.78;1479938;96;21065;-78
2021/07/14 02:19:58;;;;;;;9.20;3.37;;;;;;;17.28;100.00;101057.14;1481660;96;21645;-73
2021/07/14 02:22:27;;;;;;;7.25;3.47;;;;;;;17.49;100.00;101069.92;1497343;93;20994;-73
2021/07/14 02:24:54;;;;;;;10.50;3.37;;;;;;;17.49;100.00;101069.92;1516331;93;21214;-79
2021/07/14 02:27:20;;;;;;;8.20;3.05;;;;;;;17.57;100.00;101071.19;1516189;93;21002;-73
2021/07/14 02:29:49;;;;;;;10.88;3.47;;;;;;;17.58;100.00;101068.14;1516226;93;20963;-71
2021/07/14 02:32:19;;;;;;;14.07;3.98;;;;;;;17.69;100.00;101073.70;1516089;93;21117;-76
2021/07/14 02:34:49;;;;;;;9.18;2.90;;;;;;;17.73;100.00;101074.48;1522384;91;21619;-77
2021/07/14 02:37:42;;;;;;;11.28;3.75;;;;;;;17.81;100.00;101076.57;1545368;92;21314;-77
2021/07/14 02:40:11;;;;;;;7.90;3.30;;;;;;;17.92;100.00;101077.48;1547515;92;21100;-73
2021/07/14 02:42:39;;;;;;;15.30;3.87;;;;;;;17.99;100.00;101081.18;1547705;92;21057;-74
2021/07/14 02:45:07;;;;;;;8.95;3.65;;;;;;;18.09;100.00;101082.39;1547672;92;21053;-75
2021/07/14 02:47:41;;;;;;;10.32;3.70;;;;;;;18.20;100.00;101078.11;1547836;92;21102;-73
2021/07/14 02:50:17;;;;;;;14.47;3.58;;;;;;;18.30;100.00;101080.13;1547760;92;21204;-76
2021/07/14 02:52:50;;;;;;;8.58;3.30;;;;;;;18.41;100.00;101082.09;1510046;94;21607;-76
2021/07/14 02:55:20;;;;;;;9.80;2.85;;;;;;;18.61;100.00;101076.27;1510184;94;21069;-76
2021/07/14 02:57:56;;;;;;;8.60;2.90;;;;;;;18.85;100.00;101086.22;1510212;94;21077;-74
2021/07/14 03:00:23;;;;;;;7.37;3.05;;;;;;;18.97;100.00;101083.81;1510046;95;21502;-76
2021/07/14 03:02:50;;;;;;;9.30;3.20;;;;;;;19.05;100.00;101082.27;1510001;95;21621;-76
2021/07/14 03:05:18;;;;;;;7.10;3.00;;;;;;;19.14;100.00;101079.63;1509996;94;21077;-76
2021/07/14 03:07:46;;;;;;;11.73;2.80;;;;;;;19.21;100.00;101086.88;1509707;95;21108;-76
2021/07/14 03:10:20;;;;;;;7.90;2.50;;;;;;;19.30;100.00;101089.14;1509293;93;21584;-76
2021/07/14 03:12:48;;;;;;;9.50;2.77;;;;;;;19.42;100.00;101088.61;1508613;94;21148;-77
2021/07/14 03:15:14;;;;;;;9.50;2.55;;;;;;;19.50;100.00;101100.99;1508237;94;21125;-76
2021/07/14 03:17:42;;;;;;;11.88;3.12;;;;;;;19.57;100.00;101095.66;1540869;89;20989;-76
2021/07/14 03:20:12;;;;;;;12.93;3.30;;;;;;;19.70;100.00;101092.89;1596003;89;21051;-75
2021/07/14 03:22:42;;;;;;;13.48;3.45;;;;;;;19.93;100.00;101097.83;1575099;89;21053;-76
2021/07/14 03:25:11;;;;;;;27.07;7.20;;;;;;;20.28;100.00;101099.44;1593392;89;21091;-76
2021/07/14 03:27:40;;;;;;;26.50;7.78;;;;;;;20.84;100.00;101099.34;1574985;88;22088;-76
2021/07/14 03:30:07;;;;;;;25.82;7.08;;;;;;;21.45;100.00;101090.50;1576526;89;20974;-77
2021/07/14 03:32:35;;;;;;;21.33;6.72;;;;;;;22.03;100.00;101093.86;1600075;89;21637;-76
2021/07/14 03:35:03;;;;;;;17.48;4.08;;;;;;;22.64;100.00;101093.97;1600278;88;21095;-76
2021/07/14 03:37:30;;;;;;;11.12;3.75;;;;;;;23.29;100.00;101090.51;1598950;89;21143;-76
2021/07/14 03:39:57;;;;;;;5.67;2.90;;;;;;;23.68;100.00;101097.27;1598852;89;21831;-77
2021/07/14 03:42:24;;;;;;;10.05;3.37;;;;;;;24.10;100.00;101100.81;1598713;89;21552;-77
2021/07/14 03:44:53;;;;;;;10.43;3.40;;;;;;;24.43;100.00;101100.81;1598667;89;33065;-77
2021/07/14 03:47:20;;;;;;;9.30;3.20;;;;;;;24.82;100.00;101101.89;1598804;89;21216;-76
2021/07/14 03:49:47;;;;;;;9.75;2.87;;;;;;;25.20;100.00;101096.62;1599080;88;21032;-74
2021/07/14 03:52:15;;;;;;;7.55;2.75;;;;;;;25.60;100.00;101100.22;1598779;89;21314;-77
2021/07/14 03:54:42;;;;;;;5.45;2.37;;;;;;;25.81;100.00;101100.61;1598279;89;21236;-76
2021/07/14 03:57:10;;;;;;;9.83;2.52;;;;;;;26.18;100.00;101099.11;1599032;89;21547;-77
2021/07/14 03:59:38;;;;;;;4.85;2.42;;;;;;;26.68;100.00;101103.99;1599372;89;21060;-77
2021/07/14 04:02:08;;;;;;;4.17;2.42;;;;;;;26.98;100.00;101103.52;1585454;89;21002;-77
2021/07/14 04:04:35;;;;;;;5.87;2.27;;;;;;;27.19;100.00;101106.02;1573603;91;22194;-77
2021/07/14 04:07:14;;;;;;;14.95;3.15;;;;;;;27.46;91.55;101111.16;1573195;91;21471;-76
2021/07/14 04:09:45;;;;;;;10.15;2.83;;;;;;;27.63;93.10;101106.58;1560898;91;21139;-78
2021/07/14 04:12:13;;;;;;;3.93;2.13;;;;;;;27.98;90.64;101105.73;1541588;91;21106;-78
2021/07/14 04:14:40;;;;;;;6.35;2.30;;;;;;;28.44;87.13;101114.71;1558438;91;21185;-78
2021/07/14 04:17:06;;;;;;;8.23;3.22;;;;;;;28.87;78.05;101116.83;1560795;91;21995;-77
2021/07/14 04:19:33;;;;;;;9.75;3.08;;;;;;;28.92;72.04;101116.52;1561219;91;21114;-78
2021/07/14 04:21:59;;;;;;;7.75;2.83;;;;;;;29.39;71.24;101111.89;1561278;91;21157;-76
2021/07/14 04:24:25;;;;;;;4.60;2.75;;;;;;;29.88;69.49;101114.30;1561433;91;21589;-83
2021/07/14 04:26:51;;;;;;;8.55;2.72;;;;;;;30.43;65.81;101110.34;1553075;91;21077;-79
2021/07/14 04:29:18;;;;;;;7.65;2.37;;;;;;;30.73;62.16;101110.20;1542446;93;21694;-74
2021/07/14 04:31:44;;;;;;;12.15;3.47;;;;;;;30.88;60.09;101113.12;1550082;91;21626;-74
2021/07/14 04:34:11;;;;;;;6.20;2.20;;;;;;;31.17;60.06;101120.48;1541942;91;21041;-75
2021/07/14 04:36:38;;;;;;;6.10;2.60;;;;;;;31.39;60.75;101114.49;1570076;91;21159;-77
2021/07/14 04:39:06;;;;;;;11.95;3.35;;;;;;;31.84;60.45;101115.67;1572667;91;21060;-77
2021/07/14 04:41:33;;;;;;;19.48;3.12;;;;;;;32.26;58.60;101114.21;1552697;91;21826;-78
2021/07/14 04:44:02;;;;;;;13.80;3.25;;;;;;;32.58;55.61;101121.25;1572841;91;21049;-79
2021/07/14 04:46:27;;;;;;;9.73;3.33;;;;;;;32.64;54.07;101121.05;1572201;91;21626;-78
2021/07/14 04:48:55;;;;;;;9.00;2.80;;;;;;;32.71;52.35;101118.84;1572759;91;21009;-78
2021/07/14 04:51:21;;;;;;;15.80;3.30;;;;;;;32.78;52.58;101127.23;1572994;91;21099;-79
2021/07/14 04:53:47;;;;;;;11.43;2.95;;;;;;;32.99;49.92;101118.86;1572840;91;21903;-75
2021/07/14 04:56:16;;;;;;;13.95;3.65;;;;;;;33.22;49.58;101120.42;1572699;91;21060;-79
2021/07/14 04:58:42;;;;;;;7.28;3.10;;;;;;;33.46;48.11;101121.55;1572013;91;21072;-77
2021/07/14 05:01:08;;;;;;;7.25;3.60;;;;;;;33.90;49.57;101116.78;1575277;90;21002;-78
2021/07/14 05:03:34;;;;;;;14.60;4.40;;;;;;;34.36;46.98;101110.75;1579017;90;20957;-79
2021/07/14 05:06:00;;;;;;;13.58;3.77;;;;;;;34.53;45.19;101115.99;1608296;87;21475;-78
2021/07/14 05:08:26;;;;;;;10.63;3.90;;;;;;;34.31;41.93;101118.97;1641793;86;20988;-79
2021/07/14 05:10:53;;;;;;;18.48;3.85;;;;;;;34.20;40.29;101116.84;1642032;86;20908;-78
2021/07/14 05:13:19;;;;;;;14.45;4.28;;;;;;;34.13;40.81;101121.09;1641384;87;21004;-77
2021/07/14 05:15:45;;;;;;;15.35;3.98;;;;;;;34.16;39.28;101116.69;1632451;87;20999;-75
2021/07/14 05:18:12;;;;;;;17.52;5.05;;;;;;;34.48;40.05;101115.84;1641728;86;21095;-78
2021/07/14 05:20:40;;;;;;;16.20;4.17;;;;;;;34.93;38.31;101120.69;1641843;86;21036;-79
2021/07/14 05:23:07;;;;;;;14.85;3.90;;;;;;;34.78;39.70;101114.42;1641822;86;21080;-80
2021/07/14 05:25:34;;;;;;;12.35;4.70;;;;;;;35.25;39.07;101120.38;1641752;86;21086;-75
2021/07/14 05:28:03;;;;;;;8.70;3.70;;;;;;;36.10;37.64;101118.55;1641828;86;21031;-78
2021/07/14 05:30:29;;;;;;;10.23;3.67;;;;;;;36.44;33.93;101121.03;1641471;86;21181;-79
2021/07/14 05:32:55;;;;;;;13.13;3.92;;;;;;;36.44;33.93;101121.03;1641521;87;21075;-76
2021/07/14 05:35:23;;;;;;;11.35;3.70;;;;;;;36.02;35.92;101130.27;1641646;86;21076;-77
2021/07/14 05:37:49;;;;;;;8.65;3.30;;;;;;;35.91;33.83;101130.41;1566697;90;21042;-78
2021/07/14 05:40:15;;;;;;;10.35;3.50;;;;;;;35.91;34.51;101127.59;1596335;89;21113;-77
2021/07/14 05:42:41;;;;;;;10.03;3.30;;;;;;;36.07;32.94;101127.81;1597097;89;21082;-75
2021/07/14 05:45:09;;;;;;;7.90;3.40;;;;;;;35.82;34.10;101125.30;1596951;89;21081;-77
2021/07/14 05:47:35;;;;;;;8.40;3.72;;;;;;;36.51;33.92;101123.73;1597134;89;21143;-77
2021/07/14 05:50:03;;;;;;;8.65;3.67;;;;;;;36.88;34.79;101119.89;1597140;89;21078;-74
2021/07/14 05:52:28;;;;;;;5.58;3.60;;;;;;;37.51;34.02;101129.00;1596864;88;21070;-77
2021/07/14 05:54:54;;;;;;;5.67;3.22;;;;;;;38.03;32.98;101126.88;1597037;89;21873;-77
2021/07/14 05:57:20;;;;;;;8.75;3.55;;;;;;;38.72;32.46;101118.39;1597246;89;20931;-77
2021/07/14 05:59:46;;;;;;;6.75;4.15;;;;;;;39.49;32.39;101125.18;1597067;89;21054;-76
2021/07/14 06:02:11;;;;;;;4.33;3.40;;;;;;;39.78;32.00;101124.99;1597335;89;20911;-76
2021/07/14 06:04:42;;;;;;;17.95;3.70;;;;;;;40.28;31.61;101125.64;1597374;89;21089;-76
2021/07/14 06:07:11;;;;;;;12.88;3.92;;;;;;;40.51;30.56;101124.48;1597464;89;21082;-78
2021/07/14 06:09:39;;;;;;;6.37;3.58;;;;;;;40.64;29.15;101121.02;1597228;89;21006;-78
2021/07/14 06:12:07;;;;;;;12.15;4.03;;;;;;;40.88;29.51;101122.64;1596876;89;21132;-77
2021/07/14 06:14:33;;;;;;;15.75;4.22;;;;;;;41.33;28.35;101115.78;1597248;89;21048;-77
2021/07/14 06:16:59;;;;;;;8.88;3.95;;;;;;;41.44;27.96;101119.78;1597243;89;21105;-78
2021/07/14 06:19:26;;;;;;;7.22;4.03;;;;;;;41.72;27.93;101120.77;1597022;89;21111;-76
2021/07/14 06:21:53;;;;;;;6.87;4.22;;;;;;;41.39;26.66;101113.33;1596713;89;21106;-75
2021/07/14 06:24:19;;;;;;;8.73;3.92;;;;;;;41.22;27.07;101119.81;1596742;89;21100;-75
2021/07/14 06:26:45;;;;;;;6.30;3.72;;;;;;;41.27;26.77;101118.41;1597014;89;20919;-77
2021/07/14 06:29:11;;;;;;;8.70;3.67;;;;;;;41.42;26.92;101117.28;1597199;89;21241;-74
2021/07/14 06:31:37;;;;;;;5.22;3.40;;;;;;;41.43;26.51;101121.05;1597294;89;21073;-72
2021/07/14 06:34:03;;;;;;;6.22;3.45;;;;;;;41.62;27.36;101119.13;1607233;87;21058;-78
2021/07/14 06:36:29;;;;;;;11.10;3.72;;;;;;;41.90;26.33;101122.14;1608497;88;20950;-73
2021/07/14 06:38:58;;;;;;;5.75;3.47;;;;;;;41.74;25.68;101128.19;1657797;85;21067;-78
2021/07/14 06:41:23;;;;;;;8.40;3.20;;;;;;;41.60;26.34;101122.28;1611792;88;21070;-83
2021/07/14 06:43:50;;;;;;;7.87;3.40;;;;;;;42.01;25.53;101130.19;1657746;86;22129;-81
2021/07/14 06:46:19;;;;;;;10.15;3.52;;;;;;;41.89;25.38;101127.02;1657056;86;21039;-76
2021/07/14 06:48:46;;;;;;;5.15;3.20;;;;;;;42.15;26.23;101131.84;1616615;88;21030;-81
2021/07/14 06:51:12;;;;;;;7.83;3.40;;;;;;;42.14;24.61;101127.42;1657874;86;20996;-77
2021/07/14 06:53:40;;;;;;;4.33;3.30;;;;;;;41.73;24.50;101129.42;1657927;86;21578;-78
2021/07/14 06:56:06;;;;;;;6.22;3.30;;;;;;;41.88;24.32;101133.11;1616654;88;21310;-82
2021/07/14 06:58:36;;;;;;;6.45;3.17;;;;;;;41.63;24.90;101131.27;1657899;86;20988;-77
2021/07/14 07:01:00;;;;;;;7.95;3.50;;;;;;;42.36;23.78;101132.22;1611808;87;21010;-81
2021/07/14 07:03:25;;;;;;;4.95;2.83;;;;;;;42.09;22.79;101133.69;1657900;85;21574;-78
2021/07/14 07:05:51;;;;;;;6.75;3.40;;;;;;;41.70;23.92;101126.73;1657747;85;20909;-76
2021/07/14 07:08:17;;;;;;;8.10;2.90;;;;;;;41.94;24.38;101129.23;1631349;86;21016;-76
2021/07/14 07:10:45;;;;;;;4.90;3.00;;;;;;;42.07;23.87;101128.36;1657654;86;20971;-78
2021/07/14 07:13:15;;;;;;;4.72;2.80;;;;;;;42.42;23.85;101124.08;1657512;86;20996;-76
2021/07/14 07:15:39;;;;;;;7.08;3.27;;;;;;;42.52;24.06;101131.95;1618014;86;21380;-76
2021/07/14 07:18:05;;;;;;;3.95;3.55;;;;;;;42.58;23.52;101130.70;1662532;84;21666;-76
2021/07/14 07:20:30;;;;;;;6.05;3.45;;;;;;;42.65;22.84;101128.37;1665238;86;20999;-77
2021/07/14 07:22:56;;;;;;;11.30;3.50;;;;;;;42.53;22.95;101119.98;1665271;86;20967;-76
2021/07/14 07:25:22;;;;;;;10.30;2.87;;;;;;;42.44;22.71;101120.75;1638700;86;20918;-78
2021/07/14 07:27:49;;;;;;;5.65;3.10;;;;;;;43.21;22.72;101117.86;1665456;86;20895;-78
2021/07/14 07:30:17;;;;;;;5.05;2.92;;;;;;;43.58;21.78;101119.22;1662137;84;21137;-80
2021/07/14 07:32:44;;;;;;;5.03;3.27;;;;;;;43.86;23.07;101113.42;1655259;84;21210;-79
2021/07/14 07:35:12;;;;;;;10.25;3.20;;;;;;;44.31;22.30;101113.86;1616623;88;21090;-79
2021/07/14 07:37:39;;;;;;;3.98;3.55;;;;;;;44.25;22.25;101110.11;1645843;86;21042;-80
2021/07/14 07:40:07;;;;;;;3.83;3.10;;;;;;;44.64;22.19;101102.44;1654623;86;21557;-80
2021/07/14 07:42:33;;;;;;;3.37;3.08;;;;;;;44.90;20.01;101109.05;1654564;86;21006;-77
2021/07/14 07:44:59;;;;;;;4.03;3.05;;;;;;;44.06;20.59;101103.73;1654560;86;21851;-77
2021/07/14 07:47:25;;;;;;;8.88;3.35;;;;;;;43.67;21.03;101104.20;1654549;86;20911;-80
2021/07/14 07:49:51;;;;;;;5.92;3.10;;;;;;;43.11;20.34;101107.74;1654538;86;20991;-78
2021/07/14 07:52:22;;;;;;;3.40;2.83;;;;;;;43.23;20.78;101107.44;1651169;86;20986;-79
2021/07/14 07:54:49;;;;;;;6.58;2.62;;;;;;;43.25;20.81;101106.34;1651067;86;21510;-78
2021/07/14 07:57:15;;;;;;;5.15;2.95;;;;;;;44.48;20.24;101106.34;1653940;86;21542;-81
2021/07/14 07:59:41;;;;;;;7.03;2.72;;;;;;;43.89;19.31;101102.52;1654536;86;20891;-79
2021/07/14 08:02:08;;;;;;;2.85;2.65;;;;;;;43.23;19.05;101101.77;1654379;86;21038;-81
2021/07/14 08:04:34;;;;;;;3.20;2.72;;;;;;;42.82;19.12;101106.81;1651335;85;21077;-75
2021/07/14 08:07:00;;;;;;;4.72;2.40;;;;;;;42.98;20.34;101111.39;1600795;89;21803;-79
2021/07/14 08:09:28;;;;;;;7.40;2.25;;;;;;;42.77;18.28;101111.08;1574516;90;21140;-80
2021/07/14 08:11:54;;;;;;;10.68;2.90;;;;;;;42.32;19.40;101115.37;1601102;89;20967;-85
2021/07/14 08:14:20;;;;;;;4.45;2.80;;;;;;;42.45;18.89;101111.62;1594148;90;21639;-84
2021/07/14 08:16:46;;;;;;;4.80;2.67;;;;;;;43.17;19.11;101099.41;1594372;90;21345;-82
2021/07/14 08:19:12;;;;;;;2.60;2.40;;;;;;;44.41;19.26;101101.81;1574624;90;21528;-78
2021/07/14 08:21:40;;;;;;;5.65;2.95;;;;;;;44.88;18.07;101093.10;1574768;90;21128;-78
2021/07/14 08:24:07;;;;;;;3.30;2.37;;;;;;;44.63;17.99;101088.72;1593717;90;21125;-85
2021/07/14 08:26:34;;;;;;;2.42;2.33;;;;;;;44.11;16.50;101089.51;1593753;88;21021;-80
2021/07/14 08:29:00;;;;;;;7.30;2.45;;;;;;;43.70;16.92;101094.72;1594128;90;21485;-78
2021/07/14 08:31:26;;;;;;;5.22;2.25;;;;;;;43.25;19.12;101102.09;1594215;90;21025;-81
2021/07/14 08:33:52;;;;;;;2.42;2.25;;;;;;;42.74;18.47;101088.53;1593805;90;21966;-79
2021/07/14 08:36:18;;;;;;;3.60;2.22;;;;;;;42.96;19.23;101089.80;1593426;88;20994;-81
2021/07/14 08:38:44;;;;;;;2.95;2.20;;;;;;;44.12;17.98;101089.02;1591772;90;20998;-83
2021/07/14 08:41:11;;;;;;;3.37;2.50;;;;;;;43.75;18.30;101086.34;1591912;89;21525;-80
2021/07/14 08:43:41;;;;;;;8.28;2.70;;;;;;;42.81;18.17;101092.48;1591924;89;21572;-82
2021/07/14 08:46:07;;;;;;;4.97;2.12;;;;;;;43.09;18.16;101079.05;1582750;90;21169;-81
2021/07/14 08:48:34;;;;;;;4.87;2.20;;;;;;;43.73;18.08;101083.19;1585367;90;21040;-80
2021/07/14 08:51:01;;;;;;;2.10;2.00;;;;;;;43.45;18.41;101083.12;1585555;90;21005;-79
2021/07/14 08:53:28;;;;;;;4.08;2.22;;;;;;;43.70;17.31;101079.89;1585732;90;21033;-80
2021/07/14 08:55:56;;;;;;;3.42;2.10;;;;;;;43.31;17.56;101087.41;1585764;90;21093;-79
2021/07/14 08:58:25;;;;;;;7.35;2.42;;;;;;;42.54;18.09;101091.81;1564907;90;21483;-81
2021/07/14 09:00:54;;;;;;;2.85;2.00;;;;;;;42.57;19.25;101088.04;1585372;90;21080;-83
2021/07/14 09:03:21;;;;;;;3.90;2.37;;;;;;;42.84;17.35;101081.61;1591180;90;21173;-80
2021/07/14 09:05:47;;;;;;;4.67;2.22;;;;;;;43.30;18.07;101081.56;1565001;90;21068;-76
2021/07/14 09:08:13;;;;;;;3.83;1.80;;;;;;;43.07;17.77;101085.22;1585577;90;21072;-80
2021/07/14 09:10:42;;;;;;;2.10;1.90;;;;;;;42.24;18.36;101091.39;1564677;90;21918;-79
2021/07/14 09:13:11;;;;;;;1.98;1.80;;;;;;;42.34;18.79;101088.00;1564915;90;20999;-79
2021/07/14 09:15:43;;;;;;;7.20;1.82;;;;;;;42.42;18.12;101087.23;1564308;90;21083;-80
2021/07/14 09:18:15;;;;;;;3.55;1.70;;;;;;;42.20;19.41;101083.69;1564803;90;21610;-77
2021/07/14 09:20:43;;;;;;;5.35;1.80;;;;;;;42.53;19.28;101085.97;1564592;91;21123;-78
2021/07/14 09:23:18;;;;;;;2.95;1.70;;;;;;;42.26;18.94;101078.97;1564681;90;21934;-78
2021/07/14 09:25:55;;;;;;;3.65;1.90;;;;;;;41.48;18.76;101076.63;1564740;90;20987;-78
2021/07/14 09:28:28;;;;;;;3.50;1.67;;;;;;;41.35;19.31;101065.97;1546823;91;21050;-79
2021/07/14 09:31:03;;;;;;;5.12;1.67;;;;;;;41.70;19.16;101070.11;1546847;91;21063;-79
2021/07/14 09:33:30;;;;;;;5.80;1.70;;;;;;;41.38;19.98;101066.45;1546773;90;21033;-79
2021/07/14 09:35:58;;;;;;;2.95;1.60;;;;;;;40.60;19.45;101074.33;1519408;92;21184;-83
2021/07/14 09:38:32;;;;;;;4.17;1.45;;;;;;;39.77;20.27;101063.52;1541185;93;21072;-78
2021/07/14 09:41:05;;;;;;;12.55;2.00;;;;;;;39.56;20.52;101072.59;1560003;92;21189;-78
2021/07/14 09:43:37;;;;;;;5.67;1.80;;;;;;;39.54;21.30;101063.19;1545540;92;21278;-78
2021/07/14 09:46:10;;;;;;;3.85;1.52;;;;;;;39.83;21.35;101064.53;1524604;94;21095;-78
2021/07/14 09:48:39;;;;;;;4.67;1.45;;;;;;;39.44;21.46;101062.25;1549405;92;21345;-80
2021/07/14 09:51:11;;;;;;;3.85;1.40;;;;;;;39.63;21.06;101056.25;1524495;92;21245;-79
2021/07/14 09:53:42;;;;;;;4.53;1.40;;;;;;;39.49;22.39;101062.33;1501137;95;21126;-74
2021/07/14 09:56:27;;;;;;;4.30;1.47;;;;;;;39.40;21.68;101065.02;1488753;94;21150;-76
2021/07/14 09:59:09;;;;;;;8.18;1.87;;;;;;;38.79;21.88;101062.45;1489108;96;21143;-78
2021/07/14 10:01:49;;;;;;;3.70;1.40;;;;;;;38.80;22.35;101066.25;1489144;96;21196;-79
2021/07/14 10:04:23;;;;;;;2.20;1.42;;;;;;;38.37;22.05;101067.95;1461029;98;21133;-80
2021/07/14 10:06:49;;;;;;;8.10;1.50;;;;;;;38.22;21.73;101070.34;1476112;97;21057;-78
2021/07/14 10:09:24;;;;;;;3.27;1.90;;;;;;;38.07;22.47;101075.52;1477599;97;21034;-81
2021/07/14 10:11:50;;;;;;;7.58;1.80;;;;;;;37.86;21.88;101068.34;1479330;95;21134;-79
2021/07/14 10:14:18;;;;;;;3.90;1.45;;;;;;;38.10;22.32;101071.83;1477216;97;22093;-77
2021/07/14 10:16:44;;;;;;;6.67;1.77;;;;;;;37.91;22.39;101069.83;1477234;97;21135;-80
2021/07/14 10:19:19;;;;;;;2.67;1.77;;;;;;;37.52;22.29;101068.70;1459549;97;20972;-78
2021/07/14 10:21:48;;;;;;;4.33;1.62;;;;;;;37.38;23.77;101065.54;1477450;97;21080;-80
2021/07/14 10:24:18;;;;;;;10.65;1.87;;;;;;;37.61;23.00;101066.70;1477395;97;21541;-80
2021/07/14 10:26:48;;;;;;;4.12;1.20;;;;;;;37.68;22.77;101067.94;1443008;99;21099;-79
2021/07/14 10:29:18;;;;;;;2.77;1.62;;;;;;;37.60;23.95;101071.55;1443074;99;20971;-81
2021/07/14 10:31:50;;;;;;;10.38;1.70;;;;;;;37.39;24.01;101067.14;1443171;99;21121;-80
2021/07/14 10:34:20;;;;;;;6.58;1.70;;;;;;;37.09;22.94;101063.92;1443179;99;21110;-80
2021/07/14 10:36:51;;;;;;;5.75;1.77;;;;;;;36.89;23.37;101066.71;1442682;99;21152;-79
2021/07/14 10:39:18;;;;;;;6.30;1.50;;;;;;;37.18;24.48;101067.56;1441190;99;21961;-82
2021/07/14 10:41:45;;;;;;;6.08;1.70;;;;;;;37.36;22.61;101065.79;1440744;99;21627;-79
2021/07/14 10:44:14;;;;;;;5.42;1.55;;;;;;;37.66;23.44;101067.60;1417596;100;21173;-79
2021/07/14 10:46:39;;;;;;;6.03;1.57;;;;;;;37.47;23.49;101062.17;1438123;98;21618;-79
2021/07/14 10:49:08;;;;;;;5.65;1.42;;;;;;;37.33;23.51;101056.23;1471853;97;21066;-79
2021/07/14 10:51:36;;;;;;;2.40;1.35;;;;;;;37.44;23.18;101052.55;1514122;94;21705;-79
2021/07/14 10:54:07;;;;;;;6.35;1.37;;;;;;;37.37;23.47;101054.13;1517064;94;21603;-79
2021/07/14 10:56:42;;;;;;;6.40;1.20;;;;;;;37.15;23.19;101047.34;1517350;94;21583;-79
2021/07/14 10:59:09;;;;;;;3.70;1.27;;;;;;;37.13;24.56;101048.42;1517284;94;21071;-76
2021/07/14 11:01:43;;;;;;;2.47;1.30;;;;;;;37.04;24.28;101056.80;1545403;91;21082;-79
2021/07/14 11:04:32;;;;;;;3.35;1.55;;;;;;;36.77;23.74;101054.67;1527906;93;21655;-80
2021/07/14 11:07:07;;;;;;;3.02;1.37;;;;;;;37.04;24.31;101049.78;1528020;92;21664;-77
2021/07/14 11:09:43;;;;;;;2.58;1.50;;;;;;;36.90;22.99;101050.02;1526320;92;21129;-79
2021/07/14 11:12:12;;;;;;;5.20;1.90;;;;;;;36.81;24.13;101051.20;1527745;93;21605;-79
2021/07/14 11:14:48;;;;;;;2.72;1.45;;;;;;;36.45;23.51;101046.20;1528082;92;21097;-77
2021/07/14 11:17:15;;;;;;;9.78;1.85;;;;;;;36.40;23.31;101049.50;1550168;91;22057;-79
2021/07/14 11:19:54;;;;;;;3.42;1.65;;;;;;;36.59;23.63;101054.41;1550227;91;21612;-80
2021/07/14 11:22:41;;;;;;;3.90;1.47;;;;;;;36.34;24.32;101061.03;1550270;92;21105;-79
2021/07/14 11:25:11;;;;;;;4.67;1.87;;;;;;;36.35;25.03;101042.34;1601669;87;21042;-77
2021/07/14 11:27:41;;;;;;;5.70;1.60;;;;;;;36.73;23.88;101048.34;1620122;88;21019;-78
2021/07/14 11:30:12;;;;;;;4.10;1.67;;;;;;;36.73;24.33;101049.12;1625062;87;21315;-77
2021/07/14 11:32:50;;;;;;;2.47;1.50;;;;;;;36.61;24.52;101049.76;1625230;88;20990;-76
2021/07/14 11:35:24;;;;;;;2.05;1.20;;;;;;;36.54;24.43;101047.09;1624857;88;21187;-83